sensor_id;sensor_type;location;lat;lon;timestamp;temperature;humidity
78438;SHT31;67736;51.978;5.656;2023-07-30T00:01:20;19.2;62.2
78438;SHT31;67736;51.978;5.656;2023-07-30T00:03:50;19.2;62.6
78438;SHT31;67736;51.978;5.656;2023-07-30T00:06:19;19.2;62.6
78438;SHT31;67736;51.978;5.656;2023-07-30T00:08:49;19.2;62.6
78438;SHT31;67736;51.978;5.656;2023-07-30T00:11:20;19.1;62.7
78438;SHT31;67736;51.978;5.656;2023-07-30T00:13:50;19.1;62.5
78438;SHT31;67736;51.978;5.656;2023-07-30T00:16:20;19.1;62.6
78438;SHT31;67736;51.978;5.656;2023-07-30T00:18:51;19.0;62.7
78438;SHT31;67736;51.978;5.656;2023-07-30T00:21:23;19.0;62.7
78438;SHT31;67736;51.978;5.656;2023-07-30T00:23:52;19.0;62.7
78438;SHT31;67736;51.978;5.656;2023-07-30T00:26:24;19.0;62.7
78438;SHT31;67736;51.978;5.656;2023-07-30T00:28:56;19.0;62.6
78438;SHT31;67736;51.978;5.656;2023-07-30T00:31:26;18.9;62.7
78438;SHT31;67736;51.978;5.656;2023-07-30T00:33:56;18.9;62.7
78438;SHT31;67736;51.978;5.656;2023-07-30T00:36:25;18.9;62.6
78438;SHT31;67736;51.978;5.656;2023-07-30T00:38:55;18.9;62.6
78438;SHT31;67736;51.978;5.656;2023-07-30T00:41:25;18.8;63.0
78438;SHT31;67736;51.978;5.656;2023-07-30T00:43:56;18.8;62.7
78438;SHT31;67736;51.978;5.656;2023-07-30T00:46:25;18.8;62.6
78438;SHT31;67736;51.978;5.656;2023-07-30T00:48:55;18.8;62.7
78438;SHT31;67736;51.978;5.656;2023-07-30T00:51:26;18.8;62.5
78438;SHT31;67736;51.978;5.656;2023-07-30T00:53:57;18.7;62.6
78438;SHT31;67736;51.978;5.656;2023-07-30T00:56:27;18.7;62.6
78438;SHT31;67736;51.978;5.656;2023-07-30T00:58:57;18.7;62.8
78438;SHT31;67736;51.978;5.656;2023-07-30T01:01:27;18.7;62.8
78438;SHT31;67736;51.978;5.656;2023-07-30T01:03:57;18.7;62.9
78438;SHT31;67736;51.978;5.656;2023-07-30T01:06:26;18.6;62.9
78438;SHT31;67736;51.978;5.656;2023-07-30T01:08:56;18.6;62.8
78438;SHT31;67736;51.978;5.656;2023-07-30T01:11:26;18.6;63.0
78438;SHT31;67736;51.978;5.656;2023-07-30T01:13:57;18.6;62.9
78438;SHT31;67736;51.978;5.656;2023-07-30T01:16:27;18.6;63.3
78438;SHT31;67736;51.978;5.656;2023-07-30T01:18:57;18.5;63.1
78438;SHT31;67736;51.978;5.656;2023-07-30T01:21:32;18.5;63.0
78438;SHT31;67736;51.978;5.656;2023-07-30T01:24:03;18.5;63.1
78438;SHT31;67736;51.978;5.656;2023-07-30T01:26:37;18.5;63.3
78438;SHT31;67736;51.978;5.656;2023-07-30T01:29:14;18.5;63.2
78438;SHT31;67736;51.978;5.656;2023-07-30T01:31:48;18.5;63.4
78438;SHT31;67736;51.978;5.656;2023-07-30T01:34:23;18.4;63.5
78438;SHT31;67736;51.978;5.656;2023-07-30T01:36:57;18.4;63.6
78438;SHT31;67736;51.978;5.656;2023-07-30T01:39:29;18.4;63.6
78438;SHT31;67736;51.978;5.656;2023-07-30T01:41:59;18.4;63.8
78438;SHT31;67736;51.978;5.656;2023-07-30T01:44:28;18.4;63.7
78438;SHT31;67736;51.978;5.656;2023-07-30T01:46:58;18.3;63.9
78438;SHT31;67736;51.978;5.656;2023-07-30T01:49:28;18.3;64.0
78438;SHT31;67736;51.978;5.656;2023-07-30T01:51:57;18.3;64.2
78438;SHT31;67736;51.978;5.656;2023-07-30T01:54:27;18.3;64.2
78438;SHT31;67736;51.978;5.656;2023-07-30T01:56:57;18.3;64.2
78438;SHT31;67736;51.978;5.656;2023-07-30T01:59:27;18.3;64.4
78438;SHT31;67736;51.978;5.656;2023-07-30T02:01:56;18.2;64.5
78438;SHT31;67736;51.978;5.656;2023-07-30T02:04:26;18.2;64.6
78438;SHT31;67736;51.978;5.656;2023-07-30T02:06:55;18.2;64.7
78438;SHT31;67736;51.978;5.656;2023-07-30T02:09:25;18.2;65.0
78438;SHT31;67736;51.978;5.656;2023-07-30T02:11:54;18.2;64.9
78438;SHT31;67736;51.978;5.656;2023-07-30T02:14:24;18.2;65.0
78438;SHT31;67736;51.978;5.656;2023-07-30T02:16:53;18.2;65.1
78438;SHT31;67736;51.978;5.656;2023-07-30T02:19:23;18.2;65.2
78438;SHT31;67736;51.978;5.656;2023-07-30T02:21:52;18.2;65.5
78438;SHT31;67736;51.978;5.656;2023-07-30T02:24:23;18.2;65.3
78438;SHT31;67736;51.978;5.656;2023-07-30T02:26:52;18.2;65.4
78438;SHT31;67736;51.978;5.656;2023-07-30T02:29:22;18.2;65.5
78438;SHT31;67736;51.978;5.656;2023-07-30T02:31:52;18.2;65.6
78438;SHT31;67736;51.978;5.656;2023-07-30T02:34:22;18.2;65.7
78438;SHT31;67736;51.978;5.656;2023-07-30T02:36:53;18.2;65.8
78438;SHT31;67736;51.978;5.656;2023-07-30T02:39:22;18.2;66.0
78438;SHT31;67736;51.978;5.656;2023-07-30T02:41:53;18.2;66.2
78438;SHT31;67736;51.978;5.656;2023-07-30T02:44:23;18.2;66.3
78438;SHT31;67736;51.978;5.656;2023-07-30T02:46:55;18.2;66.5
78438;SHT31;67736;51.978;5.656;2023-07-30T02:49:24;18.2;66.6
78438;SHT31;67736;51.978;5.656;2023-07-30T02:51:54;18.2;67.0
78438;SHT31;67736;51.978;5.656;2023-07-30T02:54:24;18.2;66.9
78438;SHT31;67736;51.978;5.656;2023-07-30T02:56:55;18.2;67.2
78438;SHT31;67736;51.978;5.656;2023-07-30T02:59:25;18.2;67.2
78438;SHT31;67736;51.978;5.656;2023-07-30T03:01:55;18.2;67.3
78438;SHT31;67736;51.978;5.656;2023-07-30T03:04:24;18.2;67.4
78438;SHT31;67736;51.978;5.656;2023-07-30T03:06:54;18.2;67.5
78438;SHT31;67736;51.978;5.656;2023-07-30T03:09:24;18.2;67.7
78438;SHT31;67736;51.978;5.656;2023-07-30T03:11:53;18.2;67.8
78438;SHT31;67736;51.978;5.656;2023-07-30T03:14:24;18.2;68.0
78438;SHT31;67736;51.978;5.656;2023-07-30T03:16:55;18.2;68.1
78438;SHT31;67736;51.978;5.656;2023-07-30T03:19:26;18.2;68.2
78438;SHT31;67736;51.978;5.656;2023-07-30T03:21:55;18.2;68.2
78438;SHT31;67736;51.978;5.656;2023-07-30T03:24:25;18.2;68.4
78438;SHT31;67736;51.978;5.656;2023-07-30T03:26:54;18.2;68.5
78438;SHT31;67736;51.978;5.656;2023-07-30T03:29:24;18.1;68.6
78438;SHT31;67736;51.978;5.656;2023-07-30T03:31:54;18.1;68.7
78438;SHT31;67736;51.978;5.656;2023-07-30T03:34:23;18.1;68.7
78438;SHT31;67736;51.978;5.656;2023-07-30T03:36:53;18.1;68.8
78438;SHT31;67736;51.978;5.656;2023-07-30T03:39:23;18.1;68.9
78438;SHT31;67736;51.978;5.656;2023-07-30T03:41:52;18.1;69.0
78438;SHT31;67736;51.978;5.656;2023-07-30T03:44:23;18.1;69.2
78438;SHT31;67736;51.978;5.656;2023-07-30T03:46:52;18.1;69.3
78438;SHT31;67736;51.978;5.656;2023-07-30T03:49:22;18.1;69.4
78438;SHT31;67736;51.978;5.656;2023-07-30T03:51:53;18.1;69.6
78438;SHT31;67736;51.978;5.656;2023-07-30T03:54:22;18.1;69.7
78438;SHT31;67736;51.978;5.656;2023-07-30T03:56:52;18.1;69.9
78438;SHT31;67736;51.978;5.656;2023-07-30T03:59:21;18.1;70.1
78438;SHT31;67736;51.978;5.656;2023-07-30T04:01:51;18.1;70.3
78438;SHT31;67736;51.978;5.656;2023-07-30T04:04:21;18.1;70.4
78438;SHT31;67736;51.978;5.656;2023-07-30T04:06:50;18.1;70.7
78438;SHT31;67736;51.978;5.656;2023-07-30T04:09:21;18.1;70.7
78438;SHT31;67736;51.978;5.656;2023-07-30T04:11:51;18.1;70.8
78438;SHT31;67736;51.978;5.656;2023-07-30T04:14:21;18.2;70.9
78438;SHT31;67736;51.978;5.656;2023-07-30T04:16:50;18.2;71.1
78438;SHT31;67736;51.978;5.656;2023-07-30T04:19:20;18.2;71.1
78438;SHT31;67736;51.978;5.656;2023-07-30T04:21:49;18.2;71.2
78438;SHT31;67736;51.978;5.656;2023-07-30T04:24:19;18.2;71.6
78438;SHT31;67736;51.978;5.656;2023-07-30T04:26:48;18.2;71.6
78438;SHT31;67736;51.978;5.656;2023-07-30T04:29:18;18.2;71.7
78438;SHT31;67736;51.978;5.656;2023-07-30T04:31:47;18.2;71.8
78438;SHT31;67736;51.978;5.656;2023-07-30T04:34:17;18.2;71.9
78438;SHT31;67736;51.978;5.656;2023-07-30T04:36:46;18.2;71.9
78438;SHT31;67736;51.978;5.656;2023-07-30T04:39:16;18.3;71.9
78438;SHT31;67736;51.978;5.656;2023-07-30T04:41:47;18.3;72.1
78438;SHT31;67736;51.978;5.656;2023-07-30T04:44:17;18.3;72.1
78438;SHT31;67736;51.978;5.656;2023-07-30T04:46:47;18.3;72.1
78438;SHT31;67736;51.978;5.656;2023-07-30T04:49:16;18.4;72.0
78438;SHT31;67736;51.978;5.656;2023-07-30T04:51:46;18.4;72.0
78438;SHT31;67736;51.978;5.656;2023-07-30T04:54:16;18.4;72.0
78438;SHT31;67736;51.978;5.656;2023-07-30T04:56:47;18.4;71.8
78438;SHT31;67736;51.978;5.656;2023-07-30T04:59:18;18.5;71.7
78438;SHT31;67736;51.978;5.656;2023-07-30T05:01:49;18.5;71.6
78438;SHT31;67736;51.978;5.656;2023-07-30T05:04:19;18.5;71.5
78438;SHT31;67736;51.978;5.656;2023-07-30T05:06:48;18.5;71.6
78438;SHT31;67736;51.978;5.656;2023-07-30T05:09:18;18.6;71.7
78438;SHT31;67736;51.978;5.656;2023-07-30T05:11:47;18.6;71.6
78438;SHT31;67736;51.978;5.656;2023-07-30T05:14:17;18.6;71.3
78438;SHT31;67736;51.978;5.656;2023-07-30T05:16:47;18.6;71.2
78438;SHT31;67736;51.978;5.656;2023-07-30T05:19:19;18.7;71.1
78438;SHT31;67736;51.978;5.656;2023-07-30T05:21:49;18.7;71.2
78438;SHT31;67736;51.978;5.656;2023-07-30T05:24:19;18.7;71.1
78438;SHT31;67736;51.978;5.656;2023-07-30T05:26:48;18.8;71.0
78438;SHT31;67736;51.978;5.656;2023-07-30T05:29:18;18.8;70.7
78438;SHT31;67736;51.978;5.656;2023-07-30T05:31:48;18.8;70.9
78438;SHT31;67736;51.978;5.656;2023-07-30T05:34:17;18.8;70.8
78438;SHT31;67736;51.978;5.656;2023-07-30T05:36:47;18.9;70.9
78438;SHT31;67736;51.978;5.656;2023-07-30T05:39:16;18.9;70.7
78438;SHT31;67736;51.978;5.656;2023-07-30T05:41:46;18.9;70.6
78438;SHT31;67736;51.978;5.656;2023-07-30T05:44:17;18.9;70.4
78438;SHT31;67736;51.978;5.656;2023-07-30T05:46:47;19.0;70.4
78438;SHT31;67736;51.978;5.656;2023-07-30T05:49:17;19.0;70.4
78438;SHT31;67736;51.978;5.656;2023-07-30T05:51:47;19.0;70.3
78438;SHT31;67736;51.978;5.656;2023-07-30T05:54:16;19.1;70.4
78438;SHT31;67736;51.978;5.656;2023-07-30T05:56:47;19.1;70.0
78438;SHT31;67736;51.978;5.656;2023-07-30T05:59:17;19.1;70.0
78438;SHT31;67736;51.978;5.656;2023-07-30T06:01:47;19.2;69.9
78438;SHT31;67736;51.978;5.656;2023-07-30T06:04:16;19.2;70.1
78438;SHT31;67736;51.978;5.656;2023-07-30T06:06:46;19.2;70.1
78438;SHT31;67736;51.978;5.656;2023-07-30T06:09:15;19.3;70.0
78438;SHT31;67736;51.978;5.656;2023-07-30T06:11:44;19.3;69.8
78438;SHT31;67736;51.978;5.656;2023-07-30T06:14:16;19.4;69.7
78438;SHT31;67736;51.978;5.656;2023-07-30T06:16:45;19.4;69.4
78438;SHT31;67736;51.978;5.656;2023-07-30T06:19:15;19.4;69.4
78438;SHT31;67736;51.978;5.656;2023-07-30T06:21:45;19.5;69.1
78438;SHT31;67736;51.978;5.656;2023-07-30T06:24:15;19.5;69.1
78438;SHT31;67736;51.978;5.656;2023-07-30T06:26:45;19.5;69.2
78438;SHT31;67736;51.978;5.656;2023-07-30T06:29:14;19.6;69.1
78438;SHT31;67736;51.978;5.656;2023-07-30T06:31:44;19.6;69.0
78438;SHT31;67736;51.978;5.656;2023-07-30T06:34:13;19.6;68.9
78438;SHT31;67736;51.978;5.656;2023-07-30T06:36:45;19.7;68.9
78438;SHT31;67736;51.978;5.656;2023-07-30T06:39:14;19.7;68.8
78438;SHT31;67736;51.978;5.656;2023-07-30T06:41:44;19.8;68.5
78438;SHT31;67736;51.978;5.656;2023-07-30T06:44:13;19.8;68.4
78438;SHT31;67736;51.978;5.656;2023-07-30T06:46:43;19.9;67.7
78438;SHT31;67736;51.978;5.656;2023-07-30T06:49:12;19.9;67.8
78438;SHT31;67736;51.978;5.656;2023-07-30T06:51:42;19.9;67.6
78438;SHT31;67736;51.978;5.656;2023-07-30T06:54:11;19.9;67.6
78438;SHT31;67736;51.978;5.656;2023-07-30T06:56:41;20.0;67.7
78438;SHT31;67736;51.978;5.656;2023-07-30T06:59:11;20.0;67.7
78438;SHT31;67736;51.978;5.656;2023-07-30T07:01:40;20.0;67.6
78438;SHT31;67736;51.978;5.656;2023-07-30T07:04:10;20.0;67.8
78438;SHT31;67736;51.978;5.656;2023-07-30T07:06:39;20.1;68.1
78438;SHT31;67736;51.978;5.656;2023-07-30T07:09:09;20.2;67.8
78438;SHT31;67736;51.978;5.656;2023-07-30T07:11:39;20.2;67.0
78438;SHT31;67736;51.978;5.656;2023-07-30T07:14:08;20.3;66.4
78438;SHT31;67736;51.978;5.656;2023-07-30T07:16:38;20.3;66.3
78438;SHT31;67736;51.978;5.656;2023-07-30T07:19:07;20.4;66.1
78438;SHT31;67736;51.978;5.656;2023-07-30T07:21:37;20.4;66.1
78438;SHT31;67736;51.978;5.656;2023-07-30T07:24:08;20.4;65.7
78438;SHT31;67736;51.978;5.656;2023-07-30T07:26:40;20.5;65.7
78438;SHT31;67736;51.978;5.656;2023-07-30T07:29:10;20.5;65.6
78438;SHT31;67736;51.978;5.656;2023-07-30T07:31:40;20.6;65.1
78438;SHT31;67736;51.978;5.656;2023-07-30T07:34:09;20.6;65.4
78438;SHT31;67736;51.978;5.656;2023-07-30T07:36:39;20.6;64.5
78438;SHT31;67736;51.978;5.656;2023-07-30T07:39:09;20.7;64.5
78438;SHT31;67736;51.978;5.656;2023-07-30T07:41:38;20.7;64.7
78438;SHT31;67736;51.978;5.656;2023-07-30T07:44:08;20.8;63.9
78438;SHT31;67736;51.978;5.656;2023-07-30T07:46:38;20.8;63.7
78438;SHT31;67736;51.978;5.656;2023-07-30T07:49:08;20.8;63.5
78438;SHT31;67736;51.978;5.656;2023-07-30T07:51:38;20.8;63.5
78438;SHT31;67736;51.978;5.656;2023-07-30T07:54:07;20.9;63.2
78438;SHT31;67736;51.978;5.656;2023-07-30T07:56:39;20.9;62.9
78438;SHT31;67736;51.978;5.656;2023-07-30T07:59:09;20.9;62.3
78438;SHT31;67736;51.978;5.656;2023-07-30T08:01:39;20.9;62.5
78438;SHT31;67736;51.978;5.656;2023-07-30T08:04:10;20.9;62.9
78438;SHT31;67736;51.978;5.656;2023-07-30T08:06:40;20.9;63.1
78438;SHT31;67736;51.978;5.656;2023-07-30T08:09:09;20.9;63.0
78438;SHT31;67736;51.978;5.656;2023-07-30T08:11:39;20.9;63.7
78438;SHT31;67736;51.978;5.656;2023-07-30T08:14:09;20.9;64.0
78438;SHT31;67736;51.978;5.656;2023-07-30T08:16:38;20.9;63.7
78438;SHT31;67736;51.978;5.656;2023-07-30T08:19:08;21.0;62.2
78438;SHT31;67736;51.978;5.656;2023-07-30T08:21:38;21.0;62.5
78438;SHT31;67736;51.978;5.656;2023-07-30T08:24:07;21.0;62.0
78438;SHT31;67736;51.978;5.656;2023-07-30T08:26:37;21.1;61.7
78438;SHT31;67736;51.978;5.656;2023-07-30T08:29:07;21.1;63.0
78438;SHT31;67736;51.978;5.656;2023-07-30T08:31:37;21.1;62.3
78438;SHT31;67736;51.978;5.656;2023-07-30T08:34:08;21.2;61.6
78438;SHT31;67736;51.978;5.656;2023-07-30T08:36:38;21.2;61.2
78438;SHT31;67736;51.978;5.656;2023-07-30T08:39:08;21.3;60.1
78438;SHT31;67736;51.978;5.656;2023-07-30T08:41:38;21.4;60.5
78438;SHT31;67736;51.978;5.656;2023-07-30T08:44:09;21.4;59.4
78438;SHT31;67736;51.978;5.656;2023-07-30T08:46:39;21.5;59.4
78438;SHT31;67736;51.978;5.656;2023-07-30T08:49:09;21.6;59.2
78438;SHT31;67736;51.978;5.656;2023-07-30T08:51:42;21.7;60.3
78438;SHT31;67736;51.978;5.656;2023-07-30T08:54:14;21.7;58.4
78438;SHT31;67736;51.978;5.656;2023-07-30T08:56:45;21.8;58.0
78438;SHT31;67736;51.978;5.656;2023-07-30T08:59:15;21.9;58.4
78438;SHT31;67736;51.978;5.656;2023-07-30T09:01:47;21.9;58.3
78438;SHT31;67736;51.978;5.656;2023-07-30T09:04:18;22.0;58.5
78438;SHT31;67736;51.978;5.656;2023-07-30T09:06:50;22.0;57.5
78438;SHT31;67736;51.978;5.656;2023-07-30T09:09:19;22.0;57.3
78438;SHT31;67736;51.978;5.656;2023-07-30T09:11:52;22.1;57.9
78438;SHT31;67736;51.978;5.656;2023-07-30T09:14:22;22.1;57.9
78438;SHT31;67736;51.978;5.656;2023-07-30T09:16:56;22.1;58.1
78438;SHT31;67736;51.978;5.656;2023-07-30T09:19:26;22.1;57.1
78438;SHT31;67736;51.978;5.656;2023-07-30T09:21:56;22.2;57.5
78438;SHT31;67736;51.978;5.656;2023-07-30T09:24:26;22.2;57.2
78438;SHT31;67736;51.978;5.656;2023-07-30T09:26:55;22.3;56.8
78438;SHT31;67736;51.978;5.656;2023-07-30T09:29:28;22.3;56.7
78438;SHT31;67736;51.978;5.656;2023-07-30T09:31:57;22.3;57.1
78438;SHT31;67736;51.978;5.656;2023-07-30T09:34:27;22.4;57.0
78438;SHT31;67736;51.978;5.656;2023-07-30T09:36:57;22.4;56.4
78438;SHT31;67736;51.978;5.656;2023-07-30T09:39:29;22.4;55.6
78438;SHT31;67736;51.978;5.656;2023-07-30T09:42:00;22.5;55.6
78438;SHT31;67736;51.978;5.656;2023-07-30T09:44:32;22.6;54.6
78438;SHT31;67736;51.978;5.656;2023-07-30T09:47:03;22.6;54.9
78438;SHT31;67736;51.978;5.656;2023-07-30T09:49:33;22.8;54.5
78438;SHT31;67736;51.978;5.656;2023-07-30T09:52:04;22.9;53.9
78438;SHT31;67736;51.978;5.656;2023-07-30T09:54:36;23.0;54.2
78438;SHT31;67736;51.978;5.656;2023-07-30T09:57:07;23.1;52.5
78438;SHT31;67736;51.978;5.656;2023-07-30T09:59:37;23.1;52.4
78438;SHT31;67736;51.978;5.656;2023-07-30T10:02:08;23.2;52.9
78438;SHT31;67736;51.978;5.656;2023-07-30T10:04:43;23.2;52.7
78438;SHT31;67736;51.978;5.656;2023-07-30T10:07:17;23.3;53.0
78438;SHT31;67736;51.978;5.656;2023-07-30T10:09:51;23.3;53.0
78438;SHT31;67736;51.978;5.656;2023-07-30T10:12:28;23.3;51.5
78438;SHT31;67736;51.978;5.656;2023-07-30T10:15:00;23.3;51.3
78438;SHT31;67736;51.978;5.656;2023-07-30T10:17:32;23.3;52.0
78438;SHT31;67736;51.978;5.656;2023-07-30T10:20:21;23.3;51.7
78438;SHT31;67736;51.978;5.656;2023-07-30T10:22:56;23.2;52.2
78438;SHT31;67736;51.978;5.656;2023-07-30T10:25:29;23.2;52.8
78438;SHT31;67736;51.978;5.656;2023-07-30T10:27:59;23.2;52.1
78438;SHT31;67736;51.978;5.656;2023-07-30T10:30:32;23.2;51.5
78438;SHT31;67736;51.978;5.656;2023-07-30T10:33:04;23.2;52.1
78438;SHT31;67736;51.978;5.656;2023-07-30T10:35:38;23.2;52.1
78438;SHT31;67736;51.978;5.656;2023-07-30T10:38:15;23.1;52.4
78438;SHT31;67736;51.978;5.656;2023-07-30T10:41:09;23.2;52.3
78438;SHT31;67736;51.978;5.656;2023-07-30T10:43:41;23.2;52.5
78438;SHT31;67736;51.978;5.656;2023-07-30T10:46:13;23.2;53.6
78438;SHT31;67736;51.978;5.656;2023-07-30T10:48:45;23.2;54.1
78438;SHT31;67736;51.978;5.656;2023-07-30T10:51:16;23.3;53.8
78438;SHT31;67736;51.978;5.656;2023-07-30T10:53:50;23.3;53.4
78438;SHT31;67736;51.978;5.656;2023-07-30T10:56:22;23.4;52.7
78438;SHT31;67736;51.978;5.656;2023-07-30T10:58:53;23.4;52.5
78438;SHT31;67736;51.978;5.656;2023-07-30T11:01:25;23.4;53.0
78438;SHT31;67736;51.978;5.656;2023-07-30T11:03:56;23.4;52.0
78438;SHT31;67736;51.978;5.656;2023-07-30T11:06:26;23.5;51.9
78438;SHT31;67736;51.978;5.656;2023-07-30T11:08:57;23.5;52.0
78438;SHT31;67736;51.978;5.656;2023-07-30T11:11:29;23.5;51.5
78438;SHT31;67736;51.978;5.656;2023-07-30T11:13:59;23.5;50.1
78438;SHT31;67736;51.978;5.656;2023-07-30T11:16:28;23.5;50.8
78438;SHT31;67736;51.978;5.656;2023-07-30T11:18:59;23.5;51.7
78438;SHT31;67736;51.978;5.656;2023-07-30T11:21:28;23.5;50.7
78438;SHT31;67736;51.978;5.656;2023-07-30T11:23:58;23.5;50.8
78438;SHT31;67736;51.978;5.656;2023-07-30T11:26:29;23.5;49.7
78438;SHT31;67736;51.978;5.656;2023-07-30T11:28:59;23.6;50.4
78438;SHT31;67736;51.978;5.656;2023-07-30T11:31:29;23.6;49.7
78438;SHT31;67736;51.978;5.656;2023-07-30T11:33:59;23.7;50.1
78438;SHT31;67736;51.978;5.656;2023-07-30T11:36:28;23.8;49.6
78438;SHT31;67736;51.978;5.656;2023-07-30T11:38:58;23.8;49.4
78438;SHT31;67736;51.978;5.656;2023-07-30T11:41:29;23.9;49.8
78438;SHT31;67736;51.978;5.656;2023-07-30T11:43:59;23.9;47.8
78438;SHT31;67736;51.978;5.656;2023-07-30T11:46:29;24.0;46.5
78438;SHT31;67736;51.978;5.656;2023-07-30T11:49:14;24.0;45.4
78438;SHT31;67736;51.978;5.656;2023-07-30T11:51:45;24.0;45.8
78438;SHT31;67736;51.978;5.656;2023-07-30T11:54:21;24.1;45.7
78438;SHT31;67736;51.978;5.656;2023-07-30T11:56:55;24.1;46.3
78438;SHT31;67736;51.978;5.656;2023-07-30T11:59:25;24.2;46.5
78438;SHT31;67736;51.978;5.656;2023-07-30T12:01:55;24.2;46.4
78438;SHT31;67736;51.978;5.656;2023-07-30T12:04:30;24.2;44.9
78438;SHT31;67736;51.978;5.656;2023-07-30T12:07:03;24.3;45.0
78438;SHT31;67736;51.978;5.656;2023-07-30T12:09:35;24.3;45.0
78438;SHT31;67736;51.978;5.656;2023-07-30T12:12:06;24.3;44.5
78438;SHT31;67736;51.978;5.656;2023-07-30T12:14:52;24.2;44.8
78438;SHT31;67736;51.978;5.656;2023-07-30T12:17:19;24.2;45.0
78438;SHT31;67736;51.978;5.656;2023-07-30T12:19:49;24.2;45.5
78438;SHT31;67736;51.978;5.656;2023-07-30T12:22:18;24.2;46.0
78438;SHT31;67736;51.978;5.656;2023-07-30T12:24:48;24.2;45.7
78438;SHT31;67736;51.978;5.656;2023-07-30T12:27:17;24.2;45.8
78438;SHT31;67736;51.978;5.656;2023-07-30T12:29:47;24.2;47.0
78438;SHT31;67736;51.978;5.656;2023-07-30T12:32:17;24.2;45.2
78438;SHT31;67736;51.978;5.656;2023-07-30T12:34:47;24.3;45.4
78438;SHT31;67736;51.978;5.656;2023-07-30T12:37:16;24.3;46.2
78438;SHT31;67736;51.978;5.656;2023-07-30T12:39:48;24.3;45.9
78438;SHT31;67736;51.978;5.656;2023-07-30T12:42:19;24.3;46.7
78438;SHT31;67736;51.978;5.656;2023-07-30T12:44:49;24.3;46.5
78438;SHT31;67736;51.978;5.656;2023-07-30T12:47:18;24.3;46.6
78438;SHT31;67736;51.978;5.656;2023-07-30T12:49:48;24.3;46.3
78438;SHT31;67736;51.978;5.656;2023-07-30T12:52:17;24.3;46.7
78438;SHT31;67736;51.978;5.656;2023-07-30T12:54:47;24.3;47.7
78438;SHT31;67736;51.978;5.656;2023-07-30T12:57:17;24.3;48.9
78438;SHT31;67736;51.978;5.656;2023-07-30T12:59:46;24.3;47.0
78438;SHT31;67736;51.978;5.656;2023-07-30T13:02:16;24.3;46.5
78438;SHT31;67736;51.978;5.656;2023-07-30T13:04:45;24.4;46.4
78438;SHT31;67736;51.978;5.656;2023-07-30T13:07:15;24.4;46.7
78438;SHT31;67736;51.978;5.656;2023-07-30T13:09:45;24.4;47.1
78438;SHT31;67736;51.978;5.656;2023-07-30T13:12:16;24.3;47.8
78438;SHT31;67736;51.978;5.656;2023-07-30T13:14:45;24.3;46.6
78438;SHT31;67736;51.978;5.656;2023-07-30T13:17:15;24.3;44.2
78438;SHT31;67736;51.978;5.656;2023-07-30T13:19:44;24.3;43.5
78438;SHT31;67736;51.978;5.656;2023-07-30T13:22:13;24.3;43.2
78438;SHT31;67736;51.978;5.656;2023-07-30T13:24:43;24.2;43.7
78438;SHT31;67736;51.978;5.656;2023-07-30T13:27:13;24.2;44.6
78438;SHT31;67736;51.978;5.656;2023-07-30T13:29:43;24.2;44.5
78438;SHT31;67736;51.978;5.656;2023-07-30T13:32:12;24.1;44.7
78438;SHT31;67736;51.978;5.656;2023-07-30T13:34:42;24.1;45.0
78438;SHT31;67736;51.978;5.656;2023-07-30T13:37:11;24.1;45.4
78438;SHT31;67736;51.978;5.656;2023-07-30T13:39:41;24.1;45.8
78438;SHT31;67736;51.978;5.656;2023-07-30T13:42:10;24.1;45.3
78438;SHT31;67736;51.978;5.656;2023-07-30T13:44:40;24.1;45.4
78438;SHT31;67736;51.978;5.656;2023-07-30T13:47:09;24.1;44.4
78438;SHT31;67736;51.978;5.656;2023-07-30T13:49:39;24.0;43.8
78438;SHT31;67736;51.978;5.656;2023-07-30T13:52:09;24.0;44.3
78438;SHT31;67736;51.978;5.656;2023-07-30T13:54:38;24.0;43.8
78438;SHT31;67736;51.978;5.656;2023-07-30T13:57:09;24.0;44.2
78438;SHT31;67736;51.978;5.656;2023-07-30T13:59:39;24.0;44.4
78438;SHT31;67736;51.978;5.656;2023-07-30T14:02:11;24.0;43.5
78438;SHT31;67736;51.978;5.656;2023-07-30T14:04:43;24.0;45.0
78438;SHT31;67736;51.978;5.656;2023-07-30T14:07:12;24.0;44.7
78438;SHT31;67736;51.978;5.656;2023-07-30T14:09:42;24.1;46.1
78438;SHT31;67736;51.978;5.656;2023-07-30T14:12:12;24.1;45.3
78438;SHT31;67736;51.978;5.656;2023-07-30T14:14:41;24.1;44.9
78438;SHT31;67736;51.978;5.656;2023-07-30T14:17:11;24.2;43.1
78438;SHT31;67736;51.978;5.656;2023-07-30T14:19:40;24.2;43.2
78438;SHT31;67736;51.978;5.656;2023-07-30T14:22:10;24.2;42.1
78438;SHT31;67736;51.978;5.656;2023-07-30T14:24:40;24.2;42.4
78438;SHT31;67736;51.978;5.656;2023-07-30T14:27:11;24.2;42.3
78438;SHT31;67736;51.978;5.656;2023-07-30T14:29:41;24.2;42.7
78438;SHT31;67736;51.978;5.656;2023-07-30T14:32:10;24.2;44.7
78438;SHT31;67736;51.978;5.656;2023-07-30T14:34:40;24.2;43.6
78438;SHT31;67736;51.978;5.656;2023-07-30T14:37:11;24.3;43.4
78438;SHT31;67736;51.978;5.656;2023-07-30T14:39:41;24.3;43.3
78438;SHT31;67736;51.978;5.656;2023-07-30T14:42:12;24.3;42.9
78438;SHT31;67736;51.978;5.656;2023-07-30T14:44:41;24.3;42.5
78438;SHT31;67736;51.978;5.656;2023-07-30T14:47:11;24.3;42.3
78438;SHT31;67736;51.978;5.656;2023-07-30T14:49:41;24.2;42.6
78438;SHT31;67736;51.978;5.656;2023-07-30T14:52:10;24.2;42.9
78438;SHT31;67736;51.978;5.656;2023-07-30T14:54:40;24.1;42.1
78438;SHT31;67736;51.978;5.656;2023-07-30T14:57:09;24.1;42.4
78438;SHT31;67736;51.978;5.656;2023-07-30T14:59:39;24.1;42.9
78438;SHT31;67736;51.978;5.656;2023-07-30T15:02:09;24.1;43.5
78438;SHT31;67736;51.978;5.656;2023-07-30T15:04:40;24.1;44.2
78438;SHT31;67736;51.978;5.656;2023-07-30T15:07:09;24.1;43.3
78438;SHT31;67736;51.978;5.656;2023-07-30T15:09:39;24.1;43.3
78438;SHT31;67736;51.978;5.656;2023-07-30T15:12:09;24.1;43.0
78438;SHT31;67736;51.978;5.656;2023-07-30T15:14:39;24.1;42.1
78438;SHT31;67736;51.978;5.656;2023-07-30T15:17:09;24.1;42.9
78438;SHT31;67736;51.978;5.656;2023-07-30T15:19:38;24.0;42.9
78438;SHT31;67736;51.978;5.656;2023-07-30T15:22:08;24.0;43.8
78438;SHT31;67736;51.978;5.656;2023-07-30T15:24:38;23.9;43.3
78438;SHT31;67736;51.978;5.656;2023-07-30T15:27:07;23.9;44.0
78438;SHT31;67736;51.978;5.656;2023-07-30T15:29:37;23.9;44.4
78438;SHT31;67736;51.978;5.656;2023-07-30T15:32:07;23.9;45.1
78438;SHT31;67736;51.978;5.656;2023-07-30T15:34:37;23.8;42.9
78438;SHT31;67736;51.978;5.656;2023-07-30T15:37:08;23.8;43.1
78438;SHT31;67736;51.978;5.656;2023-07-30T15:39:37;23.8;43.8
78438;SHT31;67736;51.978;5.656;2023-07-30T15:42:07;23.7;44.6
78438;SHT31;67736;51.978;5.656;2023-07-30T15:44:37;23.7;43.5
78438;SHT31;67736;51.978;5.656;2023-07-30T15:47:08;23.7;43.0
78438;SHT31;67736;51.978;5.656;2023-07-30T15:49:40;23.7;41.8
78438;SHT31;67736;51.978;5.656;2023-07-30T15:52:09;23.7;41.9
78438;SHT31;67736;51.978;5.656;2023-07-30T15:54:39;23.7;42.7
78438;SHT31;67736;51.978;5.656;2023-07-30T15:57:09;23.7;42.7
78438;SHT31;67736;51.978;5.656;2023-07-30T15:59:45;23.7;43.1
78438;SHT31;67736;51.978;5.656;2023-07-30T16:02:16;23.7;43.5
78438;SHT31;67736;51.978;5.656;2023-07-30T16:04:46;23.7;43.6
78438;SHT31;67736;51.978;5.656;2023-07-30T16:07:15;23.7;43.7
78438;SHT31;67736;51.978;5.656;2023-07-30T16:09:45;23.7;44.0
78438;SHT31;67736;51.978;5.656;2023-07-30T16:12:14;23.7;44.4
78438;SHT31;67736;51.978;5.656;2023-07-30T16:14:44;23.7;44.5
78438;SHT31;67736;51.978;5.656;2023-07-30T16:17:14;23.7;44.9
78438;SHT31;67736;51.978;5.656;2023-07-30T16:19:45;23.7;45.2
78438;SHT31;67736;51.978;5.656;2023-07-30T16:22:15;23.7;45.2